sensor_id;sensor_type;location;lat;lon;timestamp;temperature;humidity
33476;DHT22;19814;48.224;11.422;2023-05-29T00:00:57;11.80;99.90
33476;DHT22;19814;48.224;11.422;2023-05-29T00:03:23;11.80;99.90
33476;DHT22;19814;48.224;11.422;2023-05-29T00:05:48;11.70;99.90
33476;DHT22;19814;48.224;11.422;2023-05-29T00:08:14;11.70;99.90
33476;DHT22;19814;48.224;11.422;2023-05-29T00:10:40;11.60;99.90
33476;DHT22;19814;48.224;11.422;2023-05-29T00:13:06;11.50;99.90
33476;DHT22;19814;48.224;11.422;2023-05-29T00:15:32;11.50;99.90
33476;DHT22;19814;48.224;11.422;2023-05-29T00:17:57;11.50;99.90
33476;DHT22;19814;48.224;11.422;2023-05-29T00:20:23;11.50;99.90
33476;DHT22;19814;48.224;11.422;2023-05-29T00:22:48;11.50;99.90
33476;DHT22;19814;48.224;11.422;2023-05-29T00:25:15;11.40;99.90
33476;DHT22;19814;48.224;11.422;2023-05-29T00:27:41;11.40;99.90
33476;DHT22;19814;48.224;11.422;2023-05-29T00:30:07;11.30;99.90
33476;DHT22;19814;48.224;11.422;2023-05-29T00:32:33;11.20;99.90
33476;DHT22;19814;48.224;11.422;2023-05-29T00:34:58;11.30;99.90
33476;DHT22;19814;48.224;11.422;2023-05-29T00:37:26;11.30;99.90
33476;DHT22;19814;48.224;11.422;2023-05-29T00:39:54;11.30;99.90
33476;DHT22;19814;48.224;11.422;2023-05-29T00:42:20;11.30;99.90
33476;DHT22;19814;48.224;11.422;2023-05-29T00:44:45;11.30;99.90
33476;DHT22;19814;48.224;11.422;2023-05-29T00:47:11;11.30;99.90
33476;DHT22;19814;48.224;11.422;2023-05-29T00:49:37;11.30;99.90
33476;DHT22;19814;48.224;11.422;2023-05-29T00:52:04;11.30;99.90
33476;DHT22;19814;48.224;11.422;2023-05-29T00:54:35;11.30;99.90
33476;DHT22;19814;48.224;11.422;2023-05-29T00:57:02;11.20;99.90
33476;DHT22;19814;48.224;11.422;2023-05-29T00:59:32;11.20;99.90
33476;DHT22;19814;48.224;11.422;2023-05-29T01:02:00;11.20;99.90
33476;DHT22;19814;48.224;11.422;2023-05-29T01:04:31;11.20;99.90
33476;DHT22;19814;48.224;11.422;2023-05-29T01:07:02;11.20;99.90
33476;DHT22;19814;48.224;11.422;2023-05-29T01:09:32;11.20;99.90
33476;DHT22;19814;48.224;11.422;2023-05-29T01:12:23;11.20;99.90
33476;DHT22;19814;48.224;11.422;2023-05-29T01:28:33;11.20;99.90
33476;DHT22;19814;48.224;11.422;2023-05-29T01:31:04;11.10;99.90
33476;DHT22;19814;48.224;11.422;2023-05-29T01:33:29;11.10;99.90
33476;DHT22;19814;48.224;11.422;2023-05-29T01:35:55;11.00;99.90
33476;DHT22;19814;48.224;11.422;2023-05-29T01:38:20;11.00;99.90
33476;DHT22;19814;48.224;11.422;2023-05-29T01:40:46;10.90;99.90
33476;DHT22;19814;48.224;11.422;2023-05-29T01:43:13;10.80;99.90
33476;DHT22;19814;48.224;11.422;2023-05-29T01:45:39;10.80;99.90
33476;DHT22;19814;48.224;11.422;2023-05-29T01:48:06;10.80;99.90
33476;DHT22;19814;48.224;11.422;2023-05-29T01:50:31;10.70;99.90
33476;DHT22;19814;48.224;11.422;2023-05-29T01:52:57;10.70;99.90
33476;DHT22;19814;48.224;11.422;2023-05-29T01:55:23;10.70;99.90
33476;DHT22;19814;48.224;11.422;2023-05-29T01:57:49;10.70;99.90
33476;DHT22;19814;48.224;11.422;2023-05-29T02:00:17;10.70;99.90
33476;DHT22;19814;48.224;11.422;2023-05-29T02:02:42;10.70;99.90
33476;DHT22;19814;48.224;11.422;2023-05-29T02:05:08;10.70;99.90
33476;DHT22;19814;48.224;11.422;2023-05-29T02:07:35;10.70;99.90
33476;DHT22;19814;48.224;11.422;2023-05-29T02:10:04;10.80;99.90
33476;DHT22;19814;48.224;11.422;2023-05-29T02:12:30;10.80;99.90
33476;DHT22;19814;48.224;11.422;2023-05-29T02:14:56;10.70;99.90
33476;DHT22;19814;48.224;11.422;2023-05-29T02:17:22;10.70;99.90
33476;DHT22;19814;48.224;11.422;2023-05-29T02:19:47;10.60;99.90
33476;DHT22;19814;48.224;11.422;2023-05-29T02:22:13;10.50;99.90
33476;DHT22;19814;48.224;11.422;2023-05-29T02:24:39;10.50;99.90
33476;DHT22;19814;48.224;11.422;2023-05-29T02:27:04;10.40;99.90
33476;DHT22;19814;48.224;11.422;2023-05-29T02:29:30;10.30;99.90
33476;DHT22;19814;48.224;11.422;2023-05-29T02:31:56;10.20;99.90
33476;DHT22;19814;48.224;11.422;2023-05-29T02:34:21;10.20;99.90
33476;DHT22;19814;48.224;11.422;2023-05-29T02:36:50;10.20;99.90
33476;DHT22;19814;48.224;11.422;2023-05-29T02:39:19;10.10;99.90
33476;DHT22;19814;48.224;11.422;2023-05-29T02:41:45;10.10;99.90
33476;DHT22;19814;48.224;11.422;2023-05-29T02:44:11;10.10;99.90
33476;DHT22;19814;48.224;11.422;2023-05-29T02:46:36;10.00;99.90
33476;DHT22;19814;48.224;11.422;2023-05-29T02:49:02;10.00;99.90
33476;DHT22;19814;48.224;11.422;2023-05-29T02:51:27;10.00;99.90
33476;DHT22;19814;48.224;11.422;2023-05-29T02:53:53;10.00;99.90
33476;DHT22;19814;48.224;11.422;2023-05-29T02:56:19;10.00;99.90
33476;DHT22;19814;48.224;11.422;2023-05-29T02:58:51;9.90;99.90
33476;DHT22;19814;48.224;11.422;2023-05-29T03:01:17;10.00;99.90
33476;DHT22;19814;48.224;11.422;2023-05-29T03:03:43;10.00;99.90
33476;DHT22;19814;48.224;11.422;2023-05-29T03:06:09;10.00;99.90
33476;DHT22;19814;48.224;11.422;2023-05-29T03:08:35;10.00;99.90
33476;DHT22;19814;48.224;11.422;2023-05-29T03:11:06;10.00;99.90
33476;DHT22;19814;48.224;11.422;2023-05-29T03:13:32;9.90;99.90
33476;DHT22;19814;48.224;11.422;2023-05-29T03:15:59;9.90;99.90
33476;DHT22;19814;48.224;11.422;2023-05-29T03:18:25;9.80;99.90
33476;DHT22;19814;48.224;11.422;2023-05-29T03:20:50;9.80;99.90
33476;DHT22;19814;48.224;11.422;2023-05-29T03:23:16;9.80;99.90
33476;DHT22;19814;48.224;11.422;2023-05-29T03:25:41;9.80;99.90
33476;DHT22;19814;48.224;11.422;2023-05-29T03:28:07;9.80;99.90
33476;DHT22;19814;48.224;11.422;2023-05-29T03:30:33;9.80;99.90
33476;DHT22;19814;48.224;11.422;2023-05-29T03:32:59;9.80;99.90
33476;DHT22;19814;48.224;11.422;2023-05-29T03:35:29;9.80;99.90
33476;DHT22;19814;48.224;11.422;2023-05-29T03:37:54;9.80;99.90
33476;DHT22;19814;48.224;11.422;2023-05-29T03:40:20;9.80;99.90
33476;DHT22;19814;48.224;11.422;2023-05-29T03:42:46;9.80;99.90
33476;DHT22;19814;48.224;11.422;2023-05-29T03:45:11;9.80;99.90
33476;DHT22;19814;48.224;11.422;2023-05-29T03:47:37;9.80;99.90
33476;DHT22;19814;48.224;11.422;2023-05-29T03:50:02;9.80;99.90
33476;DHT22;19814;48.224;11.422;2023-05-29T03:52:28;9.80;99.90
33476;DHT22;19814;48.224;11.422;2023-05-29T03:54:53;9.80;99.90
33476;DHT22;19814;48.224;11.422;2023-05-29T03:57:19;9.80;99.90
33476;DHT22;19814;48.224;11.422;2023-05-29T03:59:44;9.70;99.90
33476;DHT22;19814;48.224;11.422;2023-05-29T04:02:10;9.70;99.90
33476;DHT22;19814;48.224;11.422;2023-05-29T04:04:36;9.80;99.90
33476;DHT22;19814;48.224;11.422;2023-05-29T04:07:01;9.80;99.90
33476;DHT22;19814;48.224;11.422;2023-05-29T04:09:27;9.80;99.90
33476;DHT22;19814;48.224;11.422;2023-05-29T04:11:52;9.80;99.90
33476;DHT22;19814;48.224;11.422;2023-05-29T04:14:20;9.90;99.90
33476;DHT22;19814;48.224;11.422;2023-05-29T04:16:45;9.90;99.90
33476;DHT22;19814;48.224;11.422;2023-05-29T04:19:11;10.00;99.90
33476;DHT22;19814;48.224;11.422;2023-05-29T04:21:36;10.00;99.90
33476;DHT22;19814;48.224;11.422;2023-05-29T04:24:02;10.00;99.90
33476;DHT22;19814;48.224;11.422;2023-05-29T04:26:28;10.10;99.90
33476;DHT22;19814;48.224;11.422;2023-05-29T04:28:53;10.10;99.90
33476;DHT22;19814;48.224;11.422;2023-05-29T04:31:23;10.10;99.90
33476;DHT22;19814;48.224;11.422;2023-05-29T04:33:51;10.20;99.90
33476;DHT22;19814;48.224;11.422;2023-05-29T04:36:21;10.20;99.90
33476;DHT22;19814;48.224;11.422;2023-05-29T04:38:48;10.20;99.90
33476;DHT22;19814;48.224;11.422;2023-05-29T04:41:16;10.30;99.90
33476;DHT22;19814;48.224;11.422;2023-05-29T04:43:41;10.30;99.90
33476;DHT22;19814;48.224;11.422;2023-05-29T04:46:07;10.40;99.90
33476;DHT22;19814;48.224;11.422;2023-05-29T04:48:38;10.50;99.90
33476;DHT22;19814;48.224;11.422;2023-05-29T04:51:06;10.60;99.90
33476;DHT22;19814;48.224;11.422;2023-05-29T04:53:31;10.70;99.90
33476;DHT22;19814;48.224;11.422;2023-05-29T04:55:57;10.80;99.90
33476;DHT22;19814;48.224;11.422;2023-05-29T04:58:25;10.90;99.90
33476;DHT22;19814;48.224;11.422;2023-05-29T05:00:51;11.00;99.90
33476;DHT22;19814;48.224;11.422;2023-05-29T05:03:17;11.20;99.90
33476;DHT22;19814;48.224;11.422;2023-05-29T05:05:42;11.30;99.90
33476;DHT22;19814;48.224;11.422;2023-05-29T05:08:09;11.40;99.90
33476;DHT22;19814;48.224;11.422;2023-05-29T05:10:37;11.50;99.90
33476;DHT22;19814;48.224;11.422;2023-05-29T05:13:02;11.70;99.90
33476;DHT22;19814;48.224;11.422;2023-05-29T05:15:28;11.80;99.90
33476;DHT22;19814;48.224;11.422;2023-05-29T05:17:54;12.00;99.90
33476;DHT22;19814;48.224;11.422;2023-05-29T05:20:19;12.20;99.90
33476;DHT22;19814;48.224;11.422;2023-05-29T05:22:45;12.30;99.90
33476;DHT22;19814;48.224;11.422;2023-05-29T05:25:11;12.50;99.90
33476;DHT22;19814;48.224;11.422;2023-05-29T05:27:36;12.80;99.90
33476;DHT22;19814;48.224;11.422;2023-05-29T05:30:06;13.00;99.90
33476;DHT22;19814;48.224;11.422;2023-05-29T05:32:32;13.30;99.90
33476;DHT22;19814;48.224;11.422;2023-05-29T05:34:57;13.60;99.90
33476;DHT22;19814;48.224;11.422;2023-05-29T05:37:23;13.90;99.90
33476;DHT22;19814;48.224;11.422;2023-05-29T05:39:50;14.10;99.90
33476;DHT22;19814;48.224;11.422;2023-05-29T05:42:16;14.30;99.90
33476;DHT22;19814;48.224;11.422;2023-05-29T05:44:41;14.60;99.90
33476;DHT22;19814;48.224;11.422;2023-05-29T05:47:07;14.70;99.90
33476;DHT22;19814;48.224;11.422;2023-05-29T05:49:33;14.90;99.90
33476;DHT22;19814;48.224;11.422;2023-05-29T05:51:58;15.10;99.90
33476;DHT22;19814;48.224;11.422;2023-05-29T05:54:24;15.30;99.90
33476;DHT22;19814;48.224;11.422;2023-05-29T05:56:50;15.50;99.90
33476;DHT22;19814;48.224;11.422;2023-05-29T05:59:15;15.70;99.90
33476;DHT22;19814;48.224;11.422;2023-05-29T06:01:41;15.90;99.90
33476;DHT22;19814;48.224;11.422;2023-05-29T06:04:09;16.00;99.90
33476;DHT22;19814;48.224;11.422;2023-05-29T06:06:35;16.20;99.90
33476;DHT22;19814;48.224;11.422;2023-05-29T06:09:01;16.30;99.90
33476;DHT22;19814;48.224;11.422;2023-05-29T06:11:26;16.50;99.90
33476;DHT22;19814;48.224;11.422;2023-05-29T06:13:52;16.70;99.90
33476;DHT22;19814;48.224;11.422;2023-05-29T06:16:18;16.90;99.90
33476;DHT22;19814;48.224;11.422;2023-05-29T06:18:43;17.00;99.90
33476;DHT22;19814;48.224;11.422;2023-05-29T06:21:11;17.10;97.40
33476;DHT22;19814;48.224;11.422;2023-05-29T06:23:37;17.20;99.90
33476;DHT22;19814;48.224;11.422;2023-05-29T06:26:03;17.30;99.90
33476;DHT22;19814;48.224;11.422;2023-05-29T06:28:29;17.40;99.90
33476;DHT22;19814;48.224;11.422;2023-05-29T06:30:55;17.60;99.90
33476;DHT22;19814;48.224;11.422;2023-05-29T06:33:20;17.60;99.90
33476;DHT22;19814;48.224;11.422;2023-05-29T06:35:47;17.80;99.20
33476;DHT22;19814;48.224;11.422;2023-05-29T06:38:13;18.00;99.90
33476;DHT22;19814;48.224;11.422;2023-05-29T06:40:40;18.20;97.60
33476;DHT22;19814;48.224;11.422;2023-05-29T06:43:05;18.20;98.30
33476;DHT22;19814;48.224;11.422;2023-05-29T06:45:31;18.10;95.70
33476;DHT22;19814;48.224;11.422;2023-05-29T06:47:56;18.20;99.00
33476;DHT22;19814;48.224;11.422;2023-05-29T06:50:22;18.50;99.90
33476;DHT22;19814;48.224;11.422;2023-05-29T06:52:48;18.70;96.80
33476;DHT22;19814;48.224;11.422;2023-05-29T06:55:13;18.90;99.40
33476;DHT22;19814;48.224;11.422;2023-05-29T06:57:39;19.00;96.50
33476;DHT22;19814;48.224;11.422;2023-05-29T07:00:05;19.20;94.30
33476;DHT22;19814;48.224;11.422;2023-05-29T07:02:31;19.40;97.80
33476;DHT22;19814;48.224;11.422;2023-05-29T07:04:57;19.10;92.90
33476;DHT22;19814;48.224;11.422;2023-05-29T07:07:23;19.30;96.40
33476;DHT22;19814;48.224;11.422;2023-05-29T07:09:48;19.60;98.20
33476;DHT22;19814;48.224;11.422;2023-05-29T07:12:14;19.70;92.10
33476;DHT22;19814;48.224;11.422;2023-05-29T07:14:39;19.70;97.20
33476;DHT22;19814;48.224;11.422;2023-05-29T07:17:05;19.80;91.00
33476;DHT22;19814;48.224;11.422;2023-05-29T07:19:31;19.80;93.80
33476;DHT22;19814;48.224;11.422;2023-05-29T07:21:59;20.00;94.70
33476;DHT22;19814;48.224;11.422;2023-05-29T07:24:25;20.20;95.70
33476;DHT22;19814;48.224;11.422;2023-05-29T07:26:50;20.50;96.80
33476;DHT22;19814;48.224;11.422;2023-05-29T07:29:16;20.90;97.50
33476;DHT22;19814;48.224;11.422;2023-05-29T07:31:43;21.30;96.90
33476;DHT22;19814;48.224;11.422;2023-05-29T07:34:10;21.60;93.30
33476;DHT22;19814;48.224;11.422;2023-05-29T07:36:35;21.80;94.70
33476;DHT22;19814;48.224;11.422;2023-05-29T07:39:02;22.10;95.50
33476;DHT22;19814;48.224;11.422;2023-05-29T07:41:27;22.30;95.40
33476;DHT22;19814;48.224;11.422;2023-05-29T07:43:53;21.90;91.50
33476;DHT22;19814;48.224;11.422;2023-05-29T07:46:20;22.00;94.80
33476;DHT22;19814;48.224;11.422;2023-05-29T07:48:46;22.40;95.40
33476;DHT22;19814;48.224;11.422;2023-05-29T07:51:12;22.50;94.00
33476;DHT22;19814;48.224;11.422;2023-05-29T07:53:38;22.80;93.80
33476;DHT22;19814;48.224;11.422;2023-05-29T07:56:03;23.20;91.70
33476;DHT22;19814;48.224;11.422;2023-05-29T07:58:29;23.50;94.50
33476;DHT22;19814;48.224;11.422;2023-05-29T08:00:54;23.80;94.00
33476;DHT22;19814;48.224;11.422;2023-05-29T08:03:20;24.00;87.10
33476;DHT22;19814;48.224;11.422;2023-05-29T08:05:46;23.50;92.00
33476;DHT22;19814;48.224;11.422;2023-05-29T08:08:12;23.90;93.80
33476;DHT22;19814;48.224;11.422;2023-05-29T08:10:38;24.20;93.50
33476;DHT22;19814;48.224;11.422;2023-05-29T08:13:04;24.60;93.80
33476;DHT22;19814;48.224;11.422;2023-05-29T08:15:29;24.90;94.00
33476;DHT22;19814;48.224;11.422;2023-05-29T08:17:59;25.10;94.10
33476;DHT22;19814;48.224;11.422;2023-05-29T08:20:25;24.90;78.10
33476;DHT22;19814;48.224;11.422;2023-05-29T08:22:51;24.20;92.20
33476;DHT22;19814;48.224;11.422;2023-05-29T08:25:16;24.50;93.50
33476;DHT22;19814;48.224;11.422;2023-05-29T08:27:42;25.00;94.00
33476;DHT22;19814;48.224;11.422;2023-05-29T08:30:08;24.90;76.20
33476;DHT22;19814;48.224;11.422;2023-05-29T08:32:33;24.50;92.20
33476;DHT22;19814;48.224;11.422;2023-05-29T08:34:59;25.00;93.40
33476;DHT22;19814;48.224;11.422;2023-05-29T08:37:24;25.50;91.50
33476;DHT22;19814;48.224;11.422;2023-05-29T08:39:50;25.80;92.70
33476;DHT22;19814;48.224;11.422;2023-05-29T08:42:29;26.20;92.40
33476;DHT22;19814;48.224;11.422;2023-05-29T08:44:56;26.40;78.40
33476;DHT22;19814;48.224;11.422;2023-05-29T08:47:24;26.00;81.00
33476;DHT22;19814;48.224;11.422;2023-05-29T08:49:54;25.70;87.30
33476;DHT22;19814;48.224;11.422;2023-05-29T08:52:24;26.10;91.40
33476;DHT22;19814;48.224;11.422;2023-05-29T08:54:54;26.50;90.50
33476;DHT22;19814;48.224;11.422;2023-05-29T08:57:20;26.10;85.80
33476;DHT22;19814;48.224;11.422;2023-05-29T08:59:47;25.50;83.60
33476;DHT22;19814;48.224;11.422;2023-05-29T09:02:16;25.80;85.60
33476;DHT22;19814;48.224;11.422;2023-05-29T09:04:42;26.10;87.00
33476;DHT22;19814;48.224;11.422;2023-05-29T09:07:11;26.00;75.50
33476;DHT22;19814;48.224;11.422;2023-05-29T09:09:37;26.00;78.20
33476;DHT22;19814;48.224;11.422;2023-05-29T09:12:03;25.90;80.60
33476;DHT22;19814;48.224;11.422;2023-05-29T09:14:42;25.90;72.30
33476;DHT22;19814;48.224;11.422;2023-05-29T09:17:10;25.70;81.50
33476;DHT22;19814;48.224;11.422;2023-05-29T09:19:36;25.90;80.40
33476;DHT22;19814;48.224;11.422;2023-05-29T09:22:08;26.50;89.00
33476;DHT22;19814;48.224;11.422;2023-05-29T09:24:36;27.20;79.00
33476;DHT22;19814;48.224;11.422;2023-05-29T09:27:02;27.60;84.00
33476;DHT22;19814;48.224;11.422;2023-05-29T09:29:32;28.00;85.00
33476;DHT22;19814;48.224;11.422;2023-05-29T09:31:58;28.60;81.60
33476;DHT22;19814;48.224;11.422;2023-05-29T09:34:24;29.10;68.20
33476;DHT22;19814;48.224;11.422;2023-05-29T09:36:58;27.90;72.10
33476;DHT22;19814;48.224;11.422;2023-05-29T09:39:28;28.00;68.30
33476;DHT22;19814;48.224;11.422;2023-05-29T09:41:56;27.80;65.00
33476;DHT22;19814;48.224;11.422;2023-05-29T09:44:22;28.20;75.80
33476;DHT22;19814;48.224;11.422;2023-05-29T09:46:48;27.80;78.40
33476;DHT22;19814;48.224;11.422;2023-05-29T09:49:15;28.40;83.50
33476;DHT22;19814;48.224;11.422;2023-05-29T09:51:42;29.30;86.20
33476;DHT22;19814;48.224;11.422;2023-05-29T09:54:16;29.90;82.60
33476;DHT22;19814;48.224;11.422;2023-05-29T09:56:43;30.40;73.40
33476;DHT22;19814;48.224;11.422;2023-05-29T09:59:15;28.80;65.40
33476;DHT22;19814;48.224;11.422;2023-05-29T10:01:43;29.20;85.80
33476;DHT22;19814;48.224;11.422;2023-05-29T10:04:12;30.00;80.90
33476;DHT22;19814;48.224;11.422;2023-05-29T10:06:44;29.90;74.40
33476;DHT22;19814;48.224;11.422;2023-05-29T10:09:12;30.30;80.30
33476;DHT22;19814;48.224;11.422;2023-05-29T10:11:44;30.70;75.70
33476;DHT22;19814;48.224;11.422;2023-05-29T10:14:17;30.90;68.70
33476;DHT22;19814;48.224;11.422;2023-05-29T10:16:46;29.90;67.00
33476;DHT22;19814;48.224;11.422;2023-05-29T10:19:19;30.30;75.80
33476;DHT22;19814;48.224;11.422;2023-05-29T10:21:47;30.70;72.40
33476;DHT22;19814;48.224;11.422;2023-05-29T10:24:14;30.60;59.50
33476;DHT22;19814;48.224;11.422;2023-05-29T10:26:42;30.30;70.60
33476;DHT22;19814;48.224;11.422;2023-05-29T10:32:01;29.80;71.50
33476;DHT22;19814;48.224;11.422;2023-05-29T10:37:42;30.00;70.80
33476;DHT22;19814;48.224;11.422;2023-05-29T10:40:11;30.60;72.00
33476;DHT22;19814;48.224;11.422;2023-05-29T10:42:43;31.40;70.90
33476;DHT22;19814;48.224;11.422;2023-05-29T10:45:09;31.30;67.90
33476;DHT22;19814;48.224;11.422;2023-05-29T10:47:37;31.10;66.70
33476;DHT22;19814;48.224;11.422;2023-05-29T10:50:03;30.60;58.50
33476;DHT22;19814;48.224;11.422;2023-05-29T10:52:33;29.10;61.00
33476;DHT22;19814;48.224;11.422;2023-05-29T10:54:59;27.60;62.10
33476;DHT22;19814;48.224;11.422;2023-05-29T10:57:25;27.50;56.90
33476;DHT22;19814;48.224;11.422;2023-05-29T11:00:18;27.60;68.20
33476;DHT22;19814;48.224;11.422;2023-05-29T11:02:45;28.30;64.00
33476;DHT22;19814;48.224;11.422;2023-05-29T11:05:19;29.00;67.40
33476;DHT22;19814;48.224;11.422;2023-05-29T11:10:54;30.40;59.00
33476;DHT22;19814;48.224;11.422;2023-05-29T11:13:36;30.30;70.30
33476;DHT22;19814;48.224;11.422;2023-05-29T11:18:53;30.50;65.50
33476;DHT22;19814;48.224;11.422;2023-05-29T11:21:23;30.50;68.80
33476;DHT22;19814;48.224;11.422;2023-05-29T11:23:52;30.30;71.10
33476;DHT22;19814;48.224;11.422;2023-05-29T11:26:23;29.60;57.90
33476;DHT22;19814;48.224;11.422;2023-05-29T11:28:49;28.80;57.80
33476;DHT22;19814;48.224;11.422;2023-05-29T11:31:15;29.00;54.80
33476;DHT22;19814;48.224;11.422;2023-05-29T11:33:47;28.60;61.20
33476;DHT22;19814;48.224;11.422;2023-05-29T11:36:14;29.30;64.90
33476;DHT22;19814;48.224;11.422;2023-05-29T11:38:40;29.40;60.50
33476;DHT22;19814;48.224;11.422;2023-05-29T11:41:05;28.70;63.60
33476;DHT22;19814;48.224;11.422;2023-05-29T11:43:31;28.70;65.50
33476;DHT22;19814;48.224;11.422;2023-05-29T11:45:57;28.50;66.90
33476;DHT22;19814;48.224;11.422;2023-05-29T11:48:22;26.80;60.70
33476;DHT22;19814;48.224;11.422;2023-05-29T11:50:49;27.00;72.00
33476;DHT22;19814;48.224;11.422;2023-05-29T11:53:15;27.90;69.40
33476;DHT22;19814;48.224;11.422;2023-05-29T11:55:41;28.70;69.80
33476;DHT22;19814;48.224;11.422;2023-05-29T11:58:06;29.40;67.30
33476;DHT22;19814;48.224;11.422;2023-05-29T12:00:36;29.60;60.80
33476;DHT22;19814;48.224;11.422;2023-05-29T12:03:03;29.10;63.80
33476;DHT22;19814;48.224;11.422;2023-05-29T12:05:43;29.00;62.90
33476;DHT22;19814;48.224;11.422;2023-05-29T12:08:09;28.70;65.30
33476;DHT22;19814;48.224;11.422;2023-05-29T12:10:35;29.30;68.60
33476;DHT22;19814;48.224;11.422;2023-05-29T12:13:00;29.60;58.00
33476;DHT22;19814;48.224;11.422;2023-05-29T12:15:26;29.60;61.60
33476;DHT22;19814;48.224;11.422;2023-05-29T12:17:53;29.40;64.10
33476;DHT22;19814;48.224;11.422;2023-05-29T12:20:22;29.40;66.80
33476;DHT22;19814;48.224;11.422;2023-05-29T12:22:48;29.60;66.10
33476;DHT22;19814;48.224;11.422;2023-05-29T12:25:17;29.20;55.90
33476;DHT22;19814;48.224;11.422;2023-05-29T12:27:46;28.40;54.00
33476;DHT22;19814;48.224;11.422;2023-05-29T12:32:43;27.20;58.50
33476;DHT22;19814;48.224;11.422;2023-05-29T12:35:22;26.20;56.60
33476;DHT22;19814;48.224;11.422;2023-05-29T12:37:49;25.70;70.60
33476;DHT22;19814;48.224;11.422;2023-05-29T12:40:19;25.70;67.40
33476;DHT22;19814;48.224;11.422;2023-05-29T12:42:47;26.10;68.30
33476;DHT22;19814;48.224;11.422;2023-05-29T12:45:13;26.40;66.30
33476;DHT22;19814;48.224;11.422;2023-05-29T12:47:45;26.70;67.80
33476;DHT22;19814;48.224;11.422;2023-05-29T12:50:22;26.90;67.10
33476;DHT22;19814;48.224;11.422;2023-05-29T12:53:11;26.80;66.90
33476;DHT22;19814;48.224;11.422;2023-05-29T12:55:38;26.70;62.60
33476;DHT22;19814;48.224;11.422;2023-05-29T12:58:05;26.80;68.90
33476;DHT22;19814;48.224;11.422;2023-05-29T13:00:33;27.00;65.20
33476;DHT22;19814;48.224;11.422;2023-05-29T13:02:58;26.80;56.10
33476;DHT22;19814;48.224;11.422;2023-05-29T13:05:24;26.40;67.00
33476;DHT22;19814;48.224;11.422;2023-05-29T13:07:51;26.60;59.50
33476;DHT22;19814;48.224;11.422;2023-05-29T13:10:17;26.20;67.30
33476;DHT22;19814;48.224;11.422;2023-05-29T13:12:43;25.90;58.20
33476;DHT22;19814;48.224;11.422;2023-05-29T13:15:12;25.00;63.90
33476;DHT22;19814;48.224;11.422;2023-05-29T13:17:38;25.00;65.40
33476;DHT22;19814;48.224;11.422;2023-05-29T13:20:10;24.90;58.80
33476;DHT22;19814;48.224;11.422;2023-05-29T13:22:36;24.80;63.80
33476;DHT22;19814;48.224;11.422;2023-05-29T13:25:02;25.00;71.30
33476;DHT22;19814;48.224;11.422;2023-05-29T13:27:28;25.30;69.70
33476;DHT22;19814;48.224;11.422;2023-05-29T13:29:54;25.20;59.00
33476;DHT22;19814;48.224;11.422;2023-05-29T13:32:20;25.00;68.90
33476;DHT22;19814;48.224;11.422;2023-05-29T13:34:45;25.20;71.00
33476;DHT22;19814;48.224;11.422;2023-05-29T13:37:11;25.40;64.10
33476;DHT22;19814;48.224;11.422;2023-05-29T13:39:37;25.50;71.10
33476;DHT22;19814;48.224;11.422;2023-05-29T13:42:02;25.60;70.10
33476;DHT22;19814;48.224;11.422;2023-05-29T13:44:28;25.80;71.60
33476;DHT22;19814;48.224;11.422;2023-05-29T13:46:53;25.90;71.50
33476;DHT22;19814;48.224;11.422;2023-05-29T13:49:19;25.80;57.60
33476;DHT22;19814;48.224;11.422;2023-05-29T13:51:45;25.40;66.30
33476;DHT22;19814;48.224;11.422;2023-05-29T13:54:12;25.50;69.90
33476;DHT22;19814;48.224;11.422;2023-05-29T13:56:38;25.50;67.50
33476;DHT22;19814;48.224;11.422;2023-05-29T13:59:03;25.60;68.20
33476;DHT22;19814;48.224;11.422;2023-05-29T14:01:32;25.60;69.20
33476;DHT22;19814;48.224;11.422;2023-05-29T14:03:58;25.70;69.80
33476;DHT22;19814;48.224;11.422;2023-05-29T14:06:24;25.70;71.50
33476;DHT22;19814;48.224;11.422;2023-05-29T14:08:50;25.70;69.50
33476;DHT22;19814;48.224;11.422;2023-05-29T14:11:15;25.50;59.50
33476;DHT22;19814;48.224;11.422;2023-05-29T14:13:41;25.20;62.90
33476;DHT22;19814;48.224;11.422;2023-05-29T14:16:06;25.10;68.50
33476;DHT22;19814;48.224;11.422;2023-05-29T14:18:32;24.80;67.70
33476;DHT22;19814;48.224;11.422;2023-05-29T14:20:58;24.90;70.50
33476;DHT22;19814;48.224;11.422;2023-05-29T14:23:23;25.00;70.40
33476;DHT22;19814;48.224;11.422;2023-05-29T14:25:49;25.00;69.60
33476;DHT22;19814;48.224;11.422;2023-05-29T14:28:16;25.00;69.20
33476;DHT22;19814;48.224;11.422;2023-05-29T14:30:42;24.60;62.60
33476;DHT22;19814;48.224;11.422;2023-05-29T14:33:08;24.40;66.20
33476;DHT22;19814;48.224;11.422;2023-05-29T14:35:34;24.20;56.80
33476;DHT22;19814;48.224;11.422;2023-05-29T14:38:01;24.10;68.10
33476;DHT22;19814;48.224;11.422;2023-05-29T14:40:26;24.20;70.80
33476;DHT22;19814;48.224;11.422;2023-05-29T14:42:52;24.10;60.40
33476;DHT22;19814;48.224;11.422;2023-05-29T14:45:17;23.90;60.80
33476;DHT22;19814;48.224;11.422;2023-05-29T14:47:43;23.80;60.30
33476;DHT22;19814;48.224;11.422;2023-05-29T14:50:09;23.70;64.70
33476;DHT22;19814;48.224;11.422;2023-05-29T14:52:35;23.70;66.80
33476;DHT22;19814;48.224;11.422;2023-05-29T14:55:01;23.80;64.70
33476;DHT22;19814;48.224;11.422;2023-05-29T14:57:27;23.70;60.20
33476;DHT22;19814;48.224;11.422;2023-05-29T14:59:52;23.60;63.80
33476;DHT22;19814;48.224;11.422;2023-05-29T15:02:18;23.60;63.80
33476;DHT22;19814;48.224;11.422;2023-05-29T15:04:43;23.60;61.40
33476;DHT22;19814;48.224;11.422;2023-05-29T15:07:09;23.50;57.70
33476;DHT22;19814;48.224;11.422;2023-05-29T15:09:35;23.40;68.00
33476;DHT22;19814;48.224;11.422;2023-05-29T15:12:01;23.50;71.00
33476;DHT22;19814;48.224;11.422;2023-05-29T15:14:28;23.60;57.00
33476;DHT22;19814;48.224;11.422;2023-05-29T15:16:53;23.50;68.40
33476;DHT22;19814;48.224;11.422;2023-05-29T15:19:20;23.60;67.60
33476;DHT22;19814;48.224;11.422;2023-05-29T15:21:45;23.60;59.90
33476;DHT22;19814;48.224;11.422;2023-05-29T15:24:11;23.60;68.40
33476;DHT22;19814;48.224;11.422;2023-05-29T15:26:36;23.60;66.90
33476;DHT22;19814;48.224;11.422;2023-05-29T15:29:02;23.50;56.50
33476;DHT22;19814;48.224;11.422;2023-05-29T15:31:28;23.40;59.10
33476;DHT22;19814;48.224;11.422;2023-05-29T15:33:54;23.30;57.20
33476;DHT22;19814;48.224;11.422;2023-05-29T15:36:19;23.20;58.80
33476;DHT22;19814;48.224;11.422;2023-05-29T15:38:46;23.10;57.30
33476;DHT22;19814;48.224;11.422;2023-05-29T15:41:12;23.00;57.50
33476;DHT22;19814;48.224;11.422;2023-05-29T15:43:37;23.10;68.40